Time;durP1;ratioP1;P1;durP2;ratioP2;P2;SDS_P1;SDS_P2;PMS_P1;PMS_P2;Temp;Humidity;BMP_temperature;BMP_pressure;BME280_temperature;BME280_humidity;BME280_pressure;Samples;Min_cycle;Max_cycle;Signal;HPM_P1;HPM_P2
2022/04/03 00:02:15;;;;;;;21.53;8.50;;;-0.70;99.90;;;;;;10406715;28;20037;-84
2022/04/03 00:07:16;;;;;;;24.07;10.40;;;-0.70;99.90;;;;;;10449462;28;20029;-84
2022/04/03 00:12:16;;;;;;;24.73;9.90;;;-0.70;99.90;;;;;;10445583;28;20036;-85
2022/04/03 00:17:17;;;;;;;21.43;8.63;;;-0.80;99.90;;;;;;10449169;28;20037;-85
2022/04/03 00:22:18;;;;;;;18.77;8.87;;;-0.80;99.90;;;;;;10426560;28;20029;-85
2022/04/03 00:27:19;;;;;;;21.90;8.63;;;-0.70;99.90;;;;;;10449028;28;20048;-84
2022/04/03 00:32:19;;;;;;;22.77;10.13;;;-0.80;99.90;;;;;;10430904;28;20033;-85
2022/04/03 00:37:20;;;;;;;19.83;8.27;;;-0.80;99.90;;;;;;10429668;28;20118;-85
2022/04/03 00:42:21;;;;;;;21.93;11.20;;;-0.80;99.90;;;;;;10408652;28;20036;-85
2022/04/03 00:47:21;;;;;;;22.83;8.97;;;-0.80;99.90;;;;;;10419930;28;20025;-85
2022/04/03 00:52:22;;;;;;;17.77;8.90;;;-0.90;99.90;;;;;;10407943;28;20111;-84
2022/04/03 00:57:24;;;;;;;21.20;8.93;;;-0.90;99.90;;;;;;10429533;28;20052;-86
2022/04/03 01:02:27;;;;;;;23.13;8.07;;;-0.90;99.90;;;;;;10417859;28;20080;-84
2022/04/03 01:07:28;;;;;;;20.77;8.70;;;-1.00;99.90;;;;;;10419728;28;20037;-83
2022/04/03 01:12:28;;;;;;;20.27;7.90;;;-1.00;99.90;;;;;;10456286;28;20032;-85
2022/04/03 01:17:29;;;;;;;19.70;7.23;;;-1.10;99.90;;;;;;10406756;28;20037;-85
2022/04/03 01:22:29;;;;;;;16.03;6.57;;;-1.10;99.90;;;;;;10454733;28;20029;-86
2022/04/03 01:27:30;;;;;;;16.00;7.60;;;-1.20;99.90;;;;;;10455483;28;20052;-85
2022/04/03 01:32:31;;;;;;;19.23;8.47;;;-1.30;99.90;;;;;;10450233;28;20060;-85
2022/04/03 01:37:32;;;;;;;17.53;8.80;;;-1.40;99.90;;;;;;10435634;28;20132;-85
2022/04/03 01:42:32;;;;;;;18.90;7.10;;;-1.40;99.90;;;;;;10454953;28;20037;-86
2022/04/03 01:47:34;;;;;;;20.43;7.37;;;-1.40;99.90;;;;;;10409943;28;20037;-85
2022/04/03 01:52:35;;;;;;;13.47;6.40;;;-1.50;99.90;;;;;;10419820;28;20044;-86
2022/04/03 01:57:37;;;;;;;18.80;7.17;;;-1.50;99.90;;;;;;10427271;28;20041;-85
2022/04/03 02:02:38;;;;;;;16.10;7.23;;;-1.50;99.90;;;;;;10399500;28;20636;-85
2022/04/03 02:07:40;;;;;;;15.90;6.93;;;-1.50;99.90;;;;;;10407740;28;20036;-85
2022/04/03 02:12:42;;;;;;;14.97;6.33;;;-1.60;99.90;;;;;;10412853;28;20040;-86
2022/04/03 02:17:43;;;;;;;16.50;7.40;;;-1.60;99.90;;;;;;10421447;28;20492;-86
2022/04/03 02:22:44;;;;;;;16.87;6.97;;;-1.70;99.90;;;;;;10453365;28;20040;-86
2022/04/03 02:27:46;;;;;;;16.83;7.13;;;-1.70;99.90;;;;;;10428657;28;20029;-85
2022/04/03 02:32:47;;;;;;;15.63;7.53;;;-1.70;99.90;;;;;;10420432;28;20033;-85
2022/04/03 02:37:47;;;;;;;21.33;6.60;;;-1.70;99.90;;;;;;10427337;28;20041;-85
2022/04/03 02:42:48;;;;;;;13.87;7.30;;;-1.70;99.90;;;;;;10433586;28;20033;-86
2022/04/03 02:47:52;;;;;;;15.93;6.80;;;-1.80;99.90;;;;;;10410361;28;20040;-86
2022/04/03 02:52:54;;;;;;;14.97;4.90;;;-1.90;99.90;;;;;;10411997;28;20041;-86
2022/04/03 02:57:55;;;;;;;12.47;5.80;;;-1.90;99.90;;;;;;10393530;28;20049;-86
2022/04/03 03:02:56;;;;;;;11.43;5.00;;;-2.00;99.90;;;;;;10430567;28;20040;-86
2022/04/03 03:07:56;;;;;;;11.53;4.63;;;-2.00;99.90;;;;;;10428797;28;20037;-86
2022/04/03 03:12:57;;;;;;;12.13;5.40;;;-2.00;99.90;;;;;;10410786;28;20028;-85
2022/04/03 03:17:58;;;;;;;12.80;5.00;;;-2.10;99.90;;;;;;10420936;28;20124;-85
2022/04/03 03:23:00;;;;;;;11.33;5.23;;;-2.10;99.90;;;;;;10392730;28;20025;-85
2022/04/03 03:28:01;;;;;;;21.43;6.23;;;-2.10;99.90;;;;;;10449280;28;20499;-85
2022/04/03 03:33:02;;;;;;;12.23;5.00;;;-2.20;99.90;;;;;;10397440;28;20130;-86
2022/04/03 03:38:03;;;;;;;15.80;5.63;;;-2.20;99.90;;;;;;10391383;28;20481;-85
2022/04/03 03:43:04;;;;;;;13.70;4.73;;;-2.20;99.90;;;;;;10420668;28;20033;-86
2022/04/03 03:48:05;;;;;;;12.20;4.77;;;-2.30;99.90;;;;;;10427318;28;20033;-85
2022/04/03 03:53:06;;;;;;;13.90;5.03;;;-2.30;99.90;;;;;;10409828;28;20049;-85
2022/04/03 03:58:07;;;;;;;11.37;4.47;;;-2.30;99.90;;;;;;10437490;28;20080;-86
2022/04/03 04:03:08;;;;;;;14.40;4.87;;;-2.30;99.90;;;;;;10444836;28;20554;-85
2022/04/03 04:08:08;;;;;;;10.77;4.00;;;-2.30;99.90;;;;;;10443190;28;20048;-84
2022/04/03 04:13:09;;;;;;;13.43;5.30;;;-2.30;99.90;;;;;;10421640;28;20096;-86
2022/04/03 04:18:10;;;;;;;14.97;4.43;;;-2.40;99.90;;;;;;10446636;28;20120;-84
2022/04/03 04:23:10;;;;;;;14.50;5.37;;;-2.40;99.90;;;;;;10424894;28;20095;-83
2022/04/03 04:28:12;;;;;;;14.63;5.10;;;-2.40;99.90;;;;;;10402410;28;20033;-82
2022/04/03 04:33:12;;;;;;;10.00;4.50;;;-2.40;99.90;;;;;;10417631;28;20091;-83
2022/04/03 04:38:13;;;;;;;14.43;4.97;;;-2.50;99.90;;;;;;10439859;28;20041;-84
2022/04/03 04:43:14;;;;;;;14.27;5.43;;;-2.50;99.90;;;;;;10440738;28;20152;-84
2022/04/03 04:48:14;;;;;;;12.30;5.17;;;-2.40;99.90;;;;;;10448289;28;20033;-85
2022/04/03 04:53:15;;;;;;;10.40;4.87;;;-2.40;99.90;;;;;;10438324;28;20049;-84
2022/04/03 04:58:16;;;;;;;13.27;5.10;;;-2.40;99.90;;;;;;10456061;28;20045;-85
2022/04/03 05:03:17;;;;;;;10.33;4.67;;;-2.40;99.90;;;;;;10455949;28;20120;-84
2022/04/03 05:08:18;;;;;;;10.87;5.10;;;-2.40;99.90;;;;;;10450039;28;20450;-85
2022/04/03 05:13:25;;;;;;;14.17;5.33;;;-2.40;99.90;;;;;;10397048;28;20708;-85
2022/04/03 05:18:25;;;;;;;14.87;5.07;;;-2.30;99.90;;;;;;10428294;28;20374;-84
2022/04/03 05:23:26;;;;;;;15.70;5.50;;;-2.30;99.90;;;;;;10450663;28;20025;-84
2022/04/03 05:28:27;;;;;;;12.37;5.53;;;-2.20;99.90;;;;;;10428852;28;20036;-84
2022/04/03 05:33:27;;;;;;;16.63;6.37;;;-2.20;99.90;;;;;;10412276;28;20119;-84
2022/04/03 05:38:28;;;;;;;12.13;5.07;;;-2.10;99.90;;;;;;10419346;28;20682;-84
2022/04/03 05:43:29;;;;;;;10.33;4.83;;;-2.00;99.90;;;;;;10417484;28;20041;-84
2022/04/03 05:48:29;;;;;;;13.77;5.80;;;-2.00;99.90;;;;;;10414887;28;20480;-87
2022/04/03 05:53:30;;;;;;;17.03;5.60;;;-1.90;99.90;;;;;;10422293;28;20088;-87
2022/04/03 05:58:31;;;;;;;14.23;5.63;;;-1.80;99.90;;;;;;10407673;28;20034;-87
2022/04/03 06:03:33;;;;;;;14.83;6.53;;;-1.70;99.90;;;;;;10422208;28;20037;-86
2022/04/03 06:08:34;;;;;;;12.50;6.37;;;-1.70;99.90;;;;;;10436643;28;20028;-87
2022/04/03 06:13:34;;;;;;;14.10;5.47;;;-1.50;99.90;;;;;;10433494;28;20033;-88
2022/04/03 06:18:35;;;;;;;12.80;5.93;;;-1.40;99.90;;;;;;10406787;28;20536;-86
2022/04/03 06:23:35;;;;;;;13.60;5.70;;;-1.20;99.90;;;;;;10438587;28;20013;-84
2022/04/03 06:28:36;;;;;;;14.73;6.27;;;-1.20;99.90;;;;;;10443876;28;20035;-85
2022/04/03 06:33:37;;;;;;;13.07;5.70;;;-1.00;99.90;;;;;;10456975;28;20599;-85
2022/04/03 06:38:37;;;;;;;16.57;6.30;;;-1.00;99.90;;;;;;10463901;28;20037;-85
2022/04/03 06:43:38;;;;;;;11.67;6.07;;;-0.90;99.90;;;;;;10455629;28;20832;-85
2022/04/03 06:48:40;;;;;;;13.23;7.57;;;-0.80;99.90;;;;;;10425036;28;20025;-84
2022/04/03 06:53:41;;;;;;;19.03;6.87;;;-0.60;99.90;;;;;;10450445;28;20102;-85
2022/04/03 06:58:42;;;;;;;18.10;7.33;;;-0.50;99.90;;;;;;10448156;28;20089;-84
2022/04/03 07:03:42;;;;;;;16.00;7.70;;;-0.40;99.90;;;;;;10429216;28;20029;-85
2022/04/03 07:08:45;;;;;;;18.87;7.27;;;-0.20;99.90;;;;;;10414690;28;20032;-87
2022/04/03 07:13:46;;;;;;;16.30;7.70;;;-0.10;99.90;;;;;;10439516;28;20119;-84
2022/04/03 07:18:47;;;;;;;15.37;6.20;;;-0.10;99.90;;;;;;10420491;28;20136;-85
2022/04/03 07:23:47;;;;;;;16.87;7.27;;;0.20;99.90;;;;;;10443130;28;20029;-84
2022/04/03 07:28:48;;;;;;;18.80;6.70;;;0.20;99.90;;;;;;10433726;28;20033;-85
2022/04/03 07:33:49;;;;;;;14.03;6.43;;;0.40;99.90;;;;;;10426053;28;20037;-87
2022/04/03 07:38:52;;;;;;;14.07;7.17;;;0.40;99.90;;;;;;10429630;28;20048;-85
2022/04/03 07:43:52;;;;;;;15.97;7.50;;;0.50;99.90;;;;;;10423233;28;20104;-87
2022/04/03 07:48:53;;;;;;;16.10;7.10;;;0.60;99.90;;;;;;10432678;28;20033;-91
2022/04/03 07:53:54;;;;;;;13.83;7.40;;;0.60;99.90;;;;;;10417408;28;20041;-85
2022/04/03 07:58:55;;;;;;;14.47;6.77;;;0.70;99.90;;;;;;10424620;28;20068;-84
2022/04/03 08:03:56;;;;;;;18.27;7.77;;;0.70;99.90;;;;;;10414780;28;20031;-85
2022/04/03 08:08:56;;;;;;;16.53;7.93;;;0.80;99.90;;;;;;10422259;28;20127;-87
2022/04/03 08:13:57;;;;;;;15.77;7.10;;;0.80;99.90;;;;;;10427544;28;20029;-88
2022/04/03 08:18:58;;;;;;;14.43;6.67;;;0.90;99.90;;;;;;10431209;28;20044;-84
2022/04/03 08:23:59;;;;;;;11.47;6.10;;;0.90;99.90;;;;;;10430435;28;20065;-84
2022/04/03 08:28:59;;;;;;;15.77;7.60;;;1.00;99.90;;;;;;10420895;28;20029;-83
2022/04/03 08:34:00;;;;;;;13.13;6.07;;;1.10;99.90;;;;;;10431172;28;20129;-85
2022/04/03 08:39:00;;;;;;;13.97;5.43;;;1.10;99.90;;;;;;10426936;28;20160;-85
2022/04/03 08:44:02;;;;;;;13.77;6.63;;;1.20;99.90;;;;;;10430058;28;20036;-84
2022/04/03 08:49:03;;;;;;;13.90;6.20;;;1.30;99.90;;;;;;10419476;28;20034;-84
2022/04/03 08:54:05;;;;;;;12.97;6.43;;;1.50;99.90;;;;;;10402569;28;20025;-87
2022/04/03 08:59:06;;;;;;;14.37;5.77;;;1.50;99.90;;;;;;10447633;28;20037;-85
2022/04/03 09:04:06;;;;;;;15.13;5.50;;;1.60;99.90;;;;;;10448924;28;20659;-85
2022/04/03 09:09:21;;;;;;;12.87;5.90;;;1.90;99.90;;;;;;10424838;28;20033;-85
2022/04/03 09:14:21;;;;;;;12.67;6.10;;;2.10;99.90;;;;;;10436467;28;20033;-85
2022/04/03 09:19:34;;;;;;;10.30;5.37;;;2.30;99.90;;;;;;10414273;28;20444;-85
2022/04/03 09:25:25;;;;;;;10.97;5.67;;;2.40;99.90;;;;;;10414488;28;20067;-86
2022/04/03 09:35:57;;;;;;;13.77;5.33;;;3.30;99.90;;;;;;10441596;28;20087;-87
2022/04/03 09:41:00;;;;;;;13.23;5.60;;;3.30;99.90;;;;;;10416131;28;20025;-86
2022/04/03 09:46:05;;;;;;;6.23;3.63;;;3.50;99.90;;;;;;10445849;28;20025;-84
2022/04/03 09:51:08;;;;;;;8.00;4.00;;;3.50;99.90;;;;;;10405296;28;20457;-85
2022/04/03 09:56:10;;;;;;;8.67;4.27;;;3.60;99.90;;;;;;10428410;28;20045;-83
2022/04/03 10:01:35;;;;;;;10.60;5.03;;;3.40;99.90;;;;;;10446279;28;20429;-84
2022/04/03 10:06:38;;;;;;;8.20;4.53;;;3.80;99.90;;;;;;10453819;28;20051;-83
2022/04/03 10:11:40;;;;;;;10.77;4.87;;;3.90;99.90;;;;;;10428423;28;20437;-83
2022/04/03 10:16:41;;;;;;;10.23;5.60;;;3.80;99.90;;;;;;10424851;28;20037;-87
2022/04/03 10:21:54;;;;;;;11.30;5.70;;;3.50;99.90;;;;;;10407066;28;20036;-84
2022/04/03 10:27:04;;;;;;;15.17;6.53;;;2.90;99.90;;;;;;10432603;28;20481;-85
2022/04/03 10:32:06;;;;;;;10.83;5.53;;;2.70;99.90;;;;;;10403444;28;20045;-84
2022/04/03 10:37:23;;;;;;;11.43;5.60;;;2.70;99.90;;;;;;10428742;28;20037;-83
2022/04/03 10:42:28;;;;;;;10.93;4.80;;;2.60;99.90;;;;;;10428523;28;20170;-86
2022/04/03 10:47:49;;;;;;;10.23;5.27;;;2.90;99.90;;;;;;10436345;28;20037;-87
2022/04/03 11:00:06;;;;;;;10.57;5.87;;;2.60;99.90;;;;;;10424120;28;20057;-86
2022/04/03 11:05:25;;;;;;;12.50;6.30;;;2.40;99.90;;;;;;10432894;28;20082;-86
2022/04/03 11:22:47;;;;;;;10.88;5.35;;;3.30;99.90;;;;;;11246790;23;20140;-83
2022/04/03 11:38:10;;;;;;;11.53;5.67;;;3.10;99.90;;;;;;12370312;23;20053;-85
2022/04/03 12:02:14;;;;;;;8.53;4.87;;;3.30;99.90;;;;;;11852289;23;20065;-82
2022/04/03 12:07:16;;;;;;;11.03;5.57;;;3.30;99.90;;;;;;10338052;28;20524;-85
2022/04/03 12:12:23;;;;;;;12.37;4.90;;;3.50;99.90;;;;;;10369595;28;20061;-85
2022/04/03 12:18:18;;;;;;;7.70;5.33;;;2.70;99.90;;;;;;10356177;28;20042;-85
2022/04/03 12:24:03;;;;;;;;;;;;;;;;;;;;;
2022/04/03 12:29:30;;;;;;;11.60;6.27;;;1.40;99.90;;;;;;10366076;28;20034;-85
2022/04/03 12:46:58;;;;;;;18.13;6.40;;;2.50;99.90;;;;;;10374499;28;19943;-88
2022/04/03 12:52:43;;;;;;;10.50;6.23;;;3.40;99.90;;;;;;10375567;28;20517;-87
2022/04/03 13:03:02;;;;;;;13.87;7.97;;;2.00;99.90;;;;;;10380726;28;20062;-91
2022/04/03 13:08:47;;;;;;;14.53;7.70;;;1.30;99.90;;;;;;10358475;28;20396;-87
2022/04/03 13:14:45;;;;;;;;;;;;;;;;;;;;;
2022/04/03 13:20:27;;;;;;;20.27;7.97;;;1.30;99.90;;;;;;10411872;28;20041;-89
2022/04/03 13:25:28;;;;;;;21.50;9.90;;;1.80;99.90;;;;;;10381478;28;20473;-88
2022/04/03 13:30:33;;;;;;;19.10;8.33;;;2.60;99.90;;;;;;10380805;28;20034;-90
2022/04/03 13:35:41;;;;;;;23.88;7.80;;;3.30;99.90;;;;;;10389554;28;20161;-84
2022/04/03 13:41:38;;;;;;;23.67;9.37;;;3.10;99.90;;;;;;10376503;28;20559;-84
2022/04/03 13:57:46;;;;;;;12.70;5.87;;;2.30;99.90;;;;;;11652500;23;20065;-83
2022/04/03 14:14:55;;;;;;;14.63;6.83;;;2.40;99.90;;;;;;10303239;28;20050;-82
2022/04/03 14:19:59;;;;;;;9.53;5.53;;;2.40;99.90;;;;;;10360205;28;20029;-82
2022/04/03 14:25:00;;;;;;;17.73;9.20;;;2.40;99.90;;;;;;10378383;28;20489;-86
2022/04/03 14:36:00;;;;;;;11.90;6.13;;;2.50;99.90;;;;;;10368707;28;20049;-85
2022/04/03 14:41:01;;;;;;;16.17;6.70;;;2.70;99.90;;;;;;10383558;28;20029;-83
2022/04/03 14:46:03;;;;;;;12.83;6.43;;;2.70;99.90;;;;;;10373709;28;20515;-83
2022/04/03 14:51:10;;;;;;;12.27;6.17;;;2.40;99.90;;;;;;10371754;28;20034;-88
2022/04/03 14:56:12;;;;;;;9.03;5.53;;;2.10;99.90;;;;;;10372106;28;20107;-82
2022/04/03 15:11:40;;;;;;;14.10;6.23;;;1.80;99.90;;;;;;10865181;23;20074;-86
2022/04/03 15:16:41;;;;;;;14.97;7.33;;;2.00;99.90;;;;;;10330343;28;20048;-86
2022/04/03 15:21:41;;;;;;;20.17;8.97;;;2.10;99.90;;;;;;10338837;28;20050;-84
2022/04/03 15:26:42;;;;;;;11.83;6.00;;;2.30;99.90;;;;;;10347272;28;20508;-84
2022/04/03 15:31:43;;;;;;;20.27;9.53;;;2.30;99.90;;;;;;10334520;28;20034;-84
2022/04/03 15:36:44;;;;;;;68.30;27.00;;;2.20;99.90;;;;;;10309354;28;20049;-84
2022/04/03 15:41:45;;;;;;;18.67;9.07;;;2.10;99.90;;;;;;10328071;28;20025;-86
2022/04/03 15:46:45;;;;;;;23.40;11.13;;;2.10;99.90;;;;;;10305093;28;20034;-84
2022/04/03 15:51:46;;;;;;;19.23;8.83;;;2.00;99.90;;;;;;10326943;28;20252;-82
2022/04/03 15:56:47;;;;;;;11.63;5.77;;;2.00;99.90;;;;;;10281214;28;20035;-82
2022/04/03 16:01:48;;;;;;;11.67;6.23;;;1.80;99.90;;;;;;10287794;28;20045;-84
2022/04/03 16:06:49;;;;;;;14.63;8.43;;;1.70;99.90;;;;;;10323668;28;20065;-85
2022/04/03 16:11:50;;;;;;;10.40;6.10;;;1.80;99.90;;;;;;10327903;28;20138;-83
2022/04/03 16:16:52;;;;;;;13.47;6.27;;;1.70;99.90;;;;;;10323574;28;20053;-84
2022/04/03 16:21:53;;;;;;;12.33;6.93;;;1.60;99.90;;;;;;10326418;28;20048;-83
2022/04/03 16:26:55;;;;;;;14.07;7.50;;;1.60;99.90;;;;;;10309076;28;20034;-85
2022/04/03 16:31:56;;;;;;;12.67;7.23;;;1.50;99.90;;;;;;10314222;28;20038;-87
2022/04/03 16:36:57;;;;;;;13.13;6.70;;;1.50;99.90;;;;;;10334229;28;20371;-83
2022/04/03 16:41:58;;;;;;;15.97;7.03;;;1.40;99.90;;;;;;10325637;28;20208;-84
2022/04/03 16:46:59;;;;;;;15.63;6.77;;;1.30;99.90;;;;;;10308395;28;20026;-84
2022/04/03 16:52:01;;;;;;;21.10;10.83;;;1.30;99.90;;;;;;10315655;28;20042;-86
2022/04/03 16:57:02;;;;;;;25.03;11.47;;;1.30;99.90;;;;;;10333851;28;20038;-83
2022/04/03 17:02:03;;;;;;;17.90;7.20;;;1.30;99.90;;;;;;10314177;28;20034;-83
2022/04/03 17:07:04;;;;;;;18.63;8.33;;;1.20;99.90;;;;;;10301876;28;20762;-85
2022/04/03 17:12:07;;;;;;;15.53;7.40;;;1.20;99.90;;;;;;10328722;28;20058;-83
2022/04/03 17:17:08;;;;;;;57.90;21.63;;;1.10;99.90;;;;;;10327703;28;20049;-84
2022/04/03 17:22:12;;;;;;;415.83;148.90;;;1.10;99.90;;;;;;10333327;28;20434;-88
2022/04/03 17:27:14;;;;;;;279.50;96.67;;;1.10;99.90;;;;;;10331440;28;20026;-83
2022/04/03 17:32:16;;;;;;;144.57;57.73;;;1.00;99.90;;;;;;10302151;28;20022;-83
2022/04/03 17:37:17;;;;;;;61.97;25.37;;;1.00;99.90;;;;;;10321034;28;20434;-83
2022/04/03 17:42:17;;;;;;;83.57;34.17;;;1.00;99.90;;;;;;10331511;28;20052;-84
2022/04/03 17:47:18;;;;;;;199.77;76.57;;;1.00;99.90;;;;;;10332397;28;20037;-84
2022/04/03 17:52:18;;;;;;;211.40;84.47;;;1.00;99.90;;;;;;10330242;28;20034;-83
2022/04/03 17:57:19;;;;;;;147.30;63.87;;;1.00;99.90;;;;;;10332177;28;20046;-85
2022/04/03 18:02:20;;;;;;;97.93;44.40;;;1.00;99.90;;;;;;10317158;28;20037;-84
2022/04/03 18:07:20;;;;;;;79.90;33.43;;;1.00;99.90;;;;;;10331236;28;20034;-81
2022/04/03 18:12:21;;;;;;;78.43;37.30;;;1.00;99.90;;;;;;10306067;28;20262;-81
2022/04/03 18:17:23;;;;;;;114.80;52.43;;;1.00;99.90;;;;;;10300241;28;20128;-80
2022/04/03 18:22:24;;;;;;;188.43;91.50;;;1.00;99.90;;;;;;10330981;28;20048;-82
2022/04/03 18:27:25;;;;;;;118.23;52.97;;;1.00;99.90;;;;;;10313069;28;20042;-84
2022/04/03 18:32:26;;;;;;;101.07;44.00;;;1.00;99.90;;;;;;10303411;28;20041;-82
2022/04/03 18:37:28;;;;;;;88.40;35.00;;;1.00;99.90;;;;;;10321120;28;20050;-82
2022/04/03 18:42:28;;;;;;;72.80;32.73;;;0.90;99.90;;;;;;10328551;28;20023;-85
2022/04/03 18:47:29;;;;;;;76.20;32.70;;;1.00;99.90;;;;;;10346775;28;20038;-83
2022/04/03 18:52:29;;;;;;;86.87;35.00;;;0.90;99.90;;;;;;10328075;28;20446;-83
2022/04/03 18:57:52;;;;;;;92.83;38.90;;;0.90;99.90;;;;;;10316843;28;20072;-84
2022/04/03 19:02:53;;;;;;;74.77;32.77;;;0.90;99.90;;;;;;10312067;28;20117;-82
2022/04/03 19:07:54;;;;;;;120.17;48.43;;;0.90;99.90;;;;;;10306157;28;20061;-84
2022/04/03 19:12:55;;;;;;;135.77;54.93;;;0.80;99.90;;;;;;10321390;28;20588;-83
2022/04/03 19:17:56;;;;;;;129.43;56.30;;;0.80;99.90;;;;;;10311444;28;20031;-83
2022/04/03 19:22:56;;;;;;;194.90;67.60;;;0.80;99.90;;;;;;10329874;28;20114;-82
2022/04/03 19:27:57;;;;;;;76.40;31.53;;;0.80;99.90;;;;;;10316771;28;20038;-84
2022/04/03 19:32:58;;;;;;;75.27;30.67;;;0.80;99.90;;;;;;10323608;28;20061;-81
2022/04/03 19:37:58;;;;;;;271.50;85.50;;;0.80;99.90;;;;;;10324975;28;20034;-85
2022/04/03 19:42:59;;;;;;;257.93;80.93;;;0.80;99.90;;;;;;10323739;28;20038;-80
2022/04/03 19:48:09;;;;;;;318.27;98.43;;;0.80;99.90;;;;;;10318619;28;20037;-85
2022/04/03 19:59:53;;;;;;;226.82;72.05;;;0.80;99.90;;;;;;10309173;28;20576;-82
2022/04/03 20:04:54;;;;;;;164.13;49.20;;;0.70;99.90;;;;;;10297736;28;20160;-82
2022/04/03 20:09:56;;;;;;;460.87;164.13;;;0.80;99.90;;;;;;10289135;28;20165;-83
2022/04/03 20:14:57;;;;;;;386.50;121.67;;;0.80;99.90;;;;;;10324473;28;20030;-81
2022/04/03 20:19:59;;;;;;;110.40;40.53;;;0.70;99.90;;;;;;10317669;28;20030;-84
2022/04/03 20:25:01;;;;;;;85.03;33.60;;;0.70;99.90;;;;;;10318510;28;20081;-82
2022/04/03 20:30:05;;;;;;;79.07;34.20;;;0.70;99.90;;;;;;10311255;28;20093;-82
2022/04/03 20:35:06;;;;;;;67.70;32.60;;;0.70;99.90;;;;;;10311034;28;20831;-81
2022/04/03 20:40:07;;;;;;;57.00;24.23;;;0.60;99.90;;;;;;10321142;28;20034;-83
2022/04/03 20:45:10;;;;;;;61.10;27.97;;;0.60;99.90;;;;;;10305267;28;20038;-84
2022/04/03 20:50:11;;;;;;;65.43;31.47;;;0.60;99.90;;;;;;10325210;28;20467;-82
2022/04/03 20:55:12;;;;;;;77.37;34.40;;;0.60;99.90;;;;;;10325337;28;20043;-82
2022/04/03 21:00:15;;;;;;;58.87;28.23;;;0.60;99.90;;;;;;10315129;28;20034;-83
2022/04/03 21:05:15;;;;;;;64.27;29.70;;;0.60;99.90;;;;;;10316600;28;20486;-83
2022/04/03 21:10:16;;;;;;;58.87;28.43;;;0.70;99.90;;;;;;10319127;28;20161;-83
2022/04/03 21:15:17;;;;;;;57.23;28.30;;;0.60;99.90;;;;;;10322915;28;20022;-82
2022/04/03 21:20:18;;;;;;;51.97;24.67;;;0.60;99.90;;;;;;10333885;28;20097;-83
2022/04/03 21:25:18;;;;;;;55.23;25.97;;;0.60;99.90;;;;;;10321474;28;20361;-84
2022/04/03 21:30:19;;;;;;;51.97;25.43;;;0.60;99.90;;;;;;10295631;28;20487;-83
2022/04/03 21:35:20;;;;;;;50.60;24.37;;;0.60;99.90;;;;;;10314957;28;20129;-83
2022/04/03 21:40:21;;;;;;;47.83;24.10;;;0.60;99.90;;;;;;10316077;28;20027;-82
2022/04/03 21:45:22;;;;;;;56.47;30.13;;;0.60;99.90;;;;;;10325083;28;20042;-83
2022/04/03 21:50:23;;;;;;;45.23;23.57;;;0.60;99.90;;;;;;10327842;28;20022;-83
2022/04/03 21:55:27;;;;;;;52.10;23.50;;;0.50;99.90;;;;;;10293533;28;20132;-83
2022/04/03 22:00:38;;;;;;;73.87;34.37;;;0.50;99.90;;;;;;10329087;28;20030;-84
2022/04/03 22:05:41;;;;;;;58.60;29.50;;;0.50;99.90;;;;;;10319497;28;20061;-83
2022/04/03 22:10:42;;;;;;;69.80;33.00;;;0.50;99.90;;;;;;10323964;28;20095;-83
2022/04/03 22:15:43;;;;;;;60.90;30.50;;;0.40;99.90;;;;;;10309281;28;20054;-84
2022/04/03 22:20:43;;;;;;;114.97;50.37;;;0.50;99.90;;;;;;10319418;28;20034;-83
2022/04/03 22:25:44;;;;;;;80.27;41.10;;;0.50;99.90;;;;;;10304396;28;20030;-82
2022/04/03 22:30:46;;;;;;;71.83;36.87;;;0.40;99.90;;;;;;10321018;28;20467;-83
2022/04/03 22:35:47;;;;;;;72.93;35.87;;;0.40;99.90;;;;;;10322493;28;20039;-81
2022/04/03 22:40:48;;;;;;;74.17;36.43;;;0.40;99.90;;;;;;10319520;28;20031;-82
2022/04/03 22:45:49;;;;;;;74.97;37.23;;;0.40;99.90;;;;;;10301963;28;20117;-81
2022/04/03 22:50:49;;;;;;;73.30;36.73;;;0.40;99.90;;;;;;10318742;28;20026;-80
2022/04/03 22:55:50;;;;;;;79.63;36.87;;;0.40;99.90;;;;;;10299175;28;20146;-80
2022/04/03 23:00:51;;;;;;;70.10;33.43;;;0.40;99.90;;;;;;10319225;28;20030;-80
2022/04/03 23:05:51;;;;;;;58.40;27.13;;;0.40;99.90;;;;;;10304995;28;20031;-82
2022/04/03 23:10:52;;;;;;;56.30;28.13;;;0.40;99.90;;;;;;10275123;28;20061;-83
2022/04/03 23:15:53;;;;;;;59.63;29.83;;;0.40;99.90;;;;;;10285737;28;20036;-82
2022/04/03 23:20:53;;;;;;;53.33;28.67;;;0.40;99.90;;;;;;10280064;28;20109;-82
2022/04/03 23:25:55;;;;;;;67.13;32.67;;;0.40;99.90;;;;;;10287648;28;20440;-82
2022/04/03 23:30:56;;;;;;;68.20;32.83;;;0.40;99.90;;;;;;10283270;28;20030;-83
2022/04/03 23:36:00;;;;;;;66.50;34.43;;;0.50;99.90;;;;;;10276384;28;20047;-82
2022/04/03 23:41:00;;;;;;;58.40;29.17;;;0.40;99.90;;;;;;10263094;28;20054;-83
2022/04/03 23:46:01;;;;;;;76.83;35.33;;;0.40;99.90;;;;;;10266204;28;20055;-82
2022/04/03 23:51:02;;;;;;;69.77;34.63;;;0.40;99.90;;;;;;10282256;28;20041;-82
2022/04/03 23:56:03;;;;;;;61.67;32.57;;;0.40;99.90;;;;;;10285766;28;20031;-81
